sensor_id;sensor_type;location;lat;lon;timestamp;P1;durP1;ratioP1;P2;durP2;ratioP2
45072;SDS011;30836;48.906;9.140;2022-07-10T00:00:57;22;;;17;;
45072;SDS011;30836;48.906;9.140;2022-07-10T00:01:58;22;;;17;;
45072;SDS011;30836;48.906;9.140;2022-07-10T00:02:58;26;;;20;;
45072;SDS011;30836;48.906;9.140;2022-07-10T00:03:59;28;;;22;;
45072;SDS011;30836;48.906;9.140;2022-07-10T00:04:59;22;;;17;;
45072;SDS011;30836;48.906;9.140;2022-07-10T00:06:00;23;;;18;;
45072;SDS011;30836;48.906;9.140;2022-07-10T00:07:00;22;;;17;;
45072;SDS011;30836;48.906;9.140;2022-07-10T00:08:01;24;;;19;;
45072;SDS011;30836;48.906;9.140;2022-07-10T00:09:01;24;;;19;;
45072;SDS011;30836;48.906;9.140;2022-07-10T00:10:03;24;;;19;;
45072;SDS011;30836;48.906;9.140;2022-07-10T00:11:04;22;;;17;;
45072;SDS011;30836;48.906;9.140;2022-07-10T00:12:05;22;;;17;;
45072;SDS011;30836;48.906;9.140;2022-07-10T00:13:05;22;;;17;;
45072;SDS011;30836;48.906;9.140;2022-07-10T00:14:06;22;;;17;;
45072;SDS011;30836;48.906;9.140;2022-07-10T00:15:07;22;;;17;;
45072;SDS011;30836;48.906;9.140;2022-07-10T00:16:07;24;;;19;;
45072;SDS011;30836;48.906;9.140;2022-07-10T00:17:08;24;;;19;;
45072;SDS011;30836;48.906;9.140;2022-07-10T00:18:08;22;;;17;;
45072;SDS011;30836;48.906;9.140;2022-07-10T00:19:09;22;;;17;;
45072;SDS011;30836;48.906;9.140;2022-07-10T00:20:10;22;;;17;;
45072;SDS011;30836;48.906;9.140;2022-07-10T00:21:11;24;;;19;;
45072;SDS011;30836;48.906;9.140;2022-07-10T00:22:11;26;;;20;;
45072;SDS011;30836;48.906;9.140;2022-07-10T00:23:12;25;;;19;;
45072;SDS011;30836;48.906;9.140;2022-07-10T00:24:12;22;;;17;;
45072;SDS011;30836;48.906;9.140;2022-07-10T00:25:13;22;;;17;;
45072;SDS011;30836;48.906;9.140;2022-07-10T00:26:14;22;;;17;;
45072;SDS011;30836;48.906;9.140;2022-07-10T00:27:14;20;;;15;;
45072;SDS011;30836;48.906;9.140;2022-07-10T00:28:15;22;;;17;;
45072;SDS011;30836;48.906;9.140;2022-07-10T00:29:15;22;;;17;;
45072;SDS011;30836;48.906;9.140;2022-07-10T00:30:16;22;;;17;;
45072;SDS011;30836;48.906;9.140;2022-07-10T00:31:16;22;;;17;;
45072;SDS011;30836;48.906;9.140;2022-07-10T00:32:16;22;;;17;;
45072;SDS011;30836;48.906;9.140;2022-07-10T00:33:17;21;;;16;;
45072;SDS011;30836;48.906;9.140;2022-07-10T00:34:17;21;;;16;;
45072;SDS011;30836;48.906;9.140;2022-07-10T00:35:18;25;;;19;;
45072;SDS011;30836;48.906;9.140;2022-07-10T00:36:18;22;;;17;;
45072;SDS011;30836;48.906;9.140;2022-07-10T00:37:19;25;;;19;;
45072;SDS011;30836;48.906;9.140;2022-07-10T00:38:19;22;;;17;;
45072;SDS011;30836;48.906;9.140;2022-07-10T00:39:20;22;;;17;;
45072;SDS011;30836;48.906;9.140;2022-07-10T00:40:20;26;;;20;;
45072;SDS011;30836;48.906;9.140;2022-07-10T00:41:21;28;;;22;;
45072;SDS011;30836;48.906;9.140;2022-07-10T00:42:21;26;;;20;;
45072;SDS011;30836;48.906;9.140;2022-07-10T00:43:22;22;;;17;;
45072;SDS011;30836;48.906;9.140;2022-07-10T00:44:22;24;;;19;;
45072;SDS011;30836;48.906;9.140;2022-07-10T00:45:23;22;;;17;;
45072;SDS011;30836;48.906;9.140;2022-07-10T00:46:25;26;;;20;;
45072;SDS011;30836;48.906;9.140;2022-07-10T00:47:25;28;;;22;;
45072;SDS011;30836;48.906;9.140;2022-07-10T00:48:26;22;;;17;;
45072;SDS011;30836;48.906;9.140;2022-07-10T00:49:26;22;;;17;;
45072;SDS011;30836;48.906;9.140;2022-07-10T00:50:28;24;;;19;;
45072;SDS011;30836;48.906;9.140;2022-07-10T00:51:30;22;;;17;;
45072;SDS011;30836;48.906;9.140;2022-07-10T00:52:30;26;;;20;;
45072;SDS011;30836;48.906;9.140;2022-07-10T00:53:31;26;;;20;;
45072;SDS011;30836;48.906;9.140;2022-07-10T00:54:33;22;;;17;;
45072;SDS011;30836;48.906;9.140;2022-07-10T00:55:35;24;;;19;;
45072;SDS011;30836;48.906;9.140;2022-07-10T00:56:36;26;;;20;;
45072;SDS011;30836;48.906;9.140;2022-07-10T00:57:38;25;;;19;;
45072;SDS011;30836;48.906;9.140;2022-07-10T00:58:39;22;;;17;;
45072;SDS011;30836;48.906;9.140;2022-07-10T00:59:40;22;;;17;;
45072;SDS011;30836;48.906;9.140;2022-07-10T01:00:51;23;;;18;;
45072;SDS011;30836;48.906;9.140;2022-07-10T01:01:52;28;;;22;;
45072;SDS011;30836;48.906;9.140;2022-07-10T01:02:53;26;;;20;;
45072;SDS011;30836;48.906;9.140;2022-07-10T01:03:54;26;;;20;;
45072;SDS011;30836;48.906;9.140;2022-07-10T01:04:57;24;;;19;;
45072;SDS011;30836;48.906;9.140;2022-07-10T01:05:57;23;;;18;;
45072;SDS011;30836;48.906;9.140;2022-07-10T01:06:58;26;;;20;;
45072;SDS011;30836;48.906;9.140;2022-07-10T01:07:59;26;;;20;;
45072;SDS011;30836;48.906;9.140;2022-07-10T01:09:00;24;;;19;;
45072;SDS011;30836;48.906;9.140;2022-07-10T01:10:00;22;;;17;;
45072;SDS011;30836;48.906;9.140;2022-07-10T01:11:02;25;;;19;;
45072;SDS011;30836;48.906;9.140;2022-07-10T01:12:03;27;;;21;;
45072;SDS011;30836;48.906;9.140;2022-07-10T01:13:03;26;;;20;;
45072;SDS011;30836;48.906;9.140;2022-07-10T01:14:05;29;;;23;;
45072;SDS011;30836;48.906;9.140;2022-07-10T01:15:06;29;;;23;;
45072;SDS011;30836;48.906;9.140;2022-07-10T01:16:07;26;;;20;;
45072;SDS011;30836;48.906;9.140;2022-07-10T01:17:08;25;;;19;;
45072;SDS011;30836;48.906;9.140;2022-07-10T01:18:09;26;;;20;;
45072;SDS011;30836;48.906;9.140;2022-07-10T01:19:09;25;;;19;;
45072;SDS011;30836;48.906;9.140;2022-07-10T01:20:10;25;;;19;;
45072;SDS011;30836;48.906;9.140;2022-07-10T01:22:21;26;;;20;;
45072;SDS011;30836;48.906;9.140;2022-07-10T01:23:22;22;;;17;;
45072;SDS011;30836;48.906;9.140;2022-07-10T01:24:23;27;;;21;;
45072;SDS011;30836;48.906;9.140;2022-07-10T01:25:23;24;;;19;;
45072;SDS011;30836;48.906;9.140;2022-07-10T01:26:24;28;;;22;;
45072;SDS011;30836;48.906;9.140;2022-07-10T01:27:25;26;;;20;;
45072;SDS011;30836;48.906;9.140;2022-07-10T01:28:26;24;;;19;;
45072;SDS011;30836;48.906;9.140;2022-07-10T01:29:28;29;;;23;;
45072;SDS011;30836;48.906;9.140;2022-07-10T01:30:29;25;;;19;;
45072;SDS011;30836;48.906;9.140;2022-07-10T01:31:29;22;;;17;;
45072;SDS011;30836;48.906;9.140;2022-07-10T01:32:38;26;;;20;;
45072;SDS011;30836;48.906;9.140;2022-07-10T01:33:40;28;;;22;;
45072;SDS011;30836;48.906;9.140;2022-07-10T01:34:41;26;;;20;;
45072;SDS011;30836;48.906;9.140;2022-07-10T01:35:41;26;;;20;;
45072;SDS011;30836;48.906;9.140;2022-07-10T01:36:42;26;;;20;;
45072;SDS011;30836;48.906;9.140;2022-07-10T01:37:42;27;;;21;;
45072;SDS011;30836;48.906;9.140;2022-07-10T01:38:43;26;;;20;;
45072;SDS011;30836;48.906;9.140;2022-07-10T01:39:44;26;;;20;;
45072;SDS011;30836;48.906;9.140;2022-07-10T01:40:44;28;;;22;;
45072;SDS011;30836;48.906;9.140;2022-07-10T01:41:45;26;;;20;;
45072;SDS011;30836;48.906;9.140;2022-07-10T01:42:46;26;;;20;;
45072;SDS011;30836;48.906;9.140;2022-07-10T01:43:46;26;;;20;;
45072;SDS011;30836;48.906;9.140;2022-07-10T01:44:46;28;;;22;;
45072;SDS011;30836;48.906;9.140;2022-07-10T01:45:47;29;;;23;;
45072;SDS011;30836;48.906;9.140;2022-07-10T01:46:48;26;;;20;;
45072;SDS011;30836;48.906;9.140;2022-07-10T01:47:48;26;;;20;;
45072;SDS011;30836;48.906;9.140;2022-07-10T01:48:48;28;;;22;;
45072;SDS011;30836;48.906;9.140;2022-07-10T01:49:50;28;;;22;;
45072;SDS011;30836;48.906;9.140;2022-07-10T01:50:50;29;;;23;;
45072;SDS011;30836;48.906;9.140;2022-07-10T01:51:51;28;;;22;;
45072;SDS011;30836;48.906;9.140;2022-07-10T01:52:51;28;;;22;;
45072;SDS011;30836;48.906;9.140;2022-07-10T01:53:52;26;;;20;;
45072;SDS011;30836;48.906;9.140;2022-07-10T01:54:52;28;;;22;;
45072;SDS011;30836;48.906;9.140;2022-07-10T01:55:53;26;;;20;;
45072;SDS011;30836;48.906;9.140;2022-07-10T01:56:53;32;;;25;;
45072;SDS011;30836;48.906;9.140;2022-07-10T01:57:53;29;;;23;;
45072;SDS011;30836;48.906;9.140;2022-07-10T01:58:54;28;;;22;;
45072;SDS011;30836;48.906;9.140;2022-07-10T01:59:54;29;;;23;;
45072;SDS011;30836;48.906;9.140;2022-07-10T02:00:55;28;;;22;;
45072;SDS011;30836;48.906;9.140;2022-07-10T02:01:55;29;;;23;;
45072;SDS011;30836;48.906;9.140;2022-07-10T02:02:56;29;;;23;;
45072;SDS011;30836;48.906;9.140;2022-07-10T02:03:57;29;;;23;;
45072;SDS011;30836;48.906;9.140;2022-07-10T02:04:57;32;;;25;;
45072;SDS011;30836;48.906;9.140;2022-07-10T02:05:58;33;;;26;;
45072;SDS011;30836;48.906;9.140;2022-07-10T02:06:58;29;;;23;;
45072;SDS011;30836;48.906;9.140;2022-07-10T02:07:58;28;;;22;;
45072;SDS011;30836;48.906;9.140;2022-07-10T02:08:59;29;;;23;;
45072;SDS011;30836;48.906;9.140;2022-07-10T02:09:59;29;;;23;;
45072;SDS011;30836;48.906;9.140;2022-07-10T02:11:00;32;;;25;;
45072;SDS011;30836;48.906;9.140;2022-07-10T02:12:00;29;;;23;;
45072;SDS011;30836;48.906;9.140;2022-07-10T02:13:01;33;;;26;;
45072;SDS011;30836;48.906;9.140;2022-07-10T02:14:01;33;;;26;;
45072;SDS011;30836;48.906;9.140;2022-07-10T02:15:02;32;;;25;;
45072;SDS011;30836;48.906;9.140;2022-07-10T02:16:03;33;;;26;;
45072;SDS011;30836;48.906;9.140;2022-07-10T02:17:04;33;;;26;;
45072;SDS011;30836;48.906;9.140;2022-07-10T02:18:05;33;;;26;;
45072;SDS011;30836;48.906;9.140;2022-07-10T02:19:05;34;;;27;;
45072;SDS011;30836;48.906;9.140;2022-07-10T02:20:06;36;;;29;;
45072;SDS011;30836;48.906;9.140;2022-07-10T02:21:07;38;;;30;;
45072;SDS011;30836;48.906;9.140;2022-07-10T02:22:07;38;;;30;;
45072;SDS011;30836;48.906;9.140;2022-07-10T02:23:08;33;;;26;;
45072;SDS011;30836;48.906;9.140;2022-07-10T02:24:08;36;;;29;;
45072;SDS011;30836;48.906;9.140;2022-07-10T02:25:09;36;;;29;;
45072;SDS011;30836;48.906;9.140;2022-07-10T02:26:09;36;;;29;;
45072;SDS011;30836;48.906;9.140;2022-07-10T02:27:10;38;;;30;;
45072;SDS011;30836;48.906;9.140;2022-07-10T02:28:10;36;;;29;;
45072;SDS011;30836;48.906;9.140;2022-07-10T02:29:11;38;;;30;;
45072;SDS011;30836;48.906;9.140;2022-07-10T02:30:11;39;;;31;;
45072;SDS011;30836;48.906;9.140;2022-07-10T02:31:22;39;;;31;;
45072;SDS011;30836;48.906;9.140;2022-07-10T02:32:22;36;;;29;;
45072;SDS011;30836;48.906;9.140;2022-07-10T02:33:23;39;;;31;;
45072;SDS011;30836;48.906;9.140;2022-07-10T02:34:23;39;;;31;;
45072;SDS011;30836;48.906;9.140;2022-07-10T02:35:24;39;;;31;;
45072;SDS011;30836;48.906;9.140;2022-07-10T02:36:24;39;;;31;;
45072;SDS011;30836;48.906;9.140;2022-07-10T02:37:24;40;;;32;;
45072;SDS011;30836;48.906;9.140;2022-07-10T02:38:25;40;;;32;;
45072;SDS011;30836;48.906;9.140;2022-07-10T02:39:25;40;;;32;;
45072;SDS011;30836;48.906;9.140;2022-07-10T02:40:26;40;;;32;;
45072;SDS011;30836;48.906;9.140;2022-07-10T02:41:26;40;;;32;;
45072;SDS011;30836;48.906;9.140;2022-07-10T02:42:27;40;;;32;;
45072;SDS011;30836;48.906;9.140;2022-07-10T02:43:27;40;;;32;;
45072;SDS011;30836;48.906;9.140;2022-07-10T02:44:27;39;;;31;;
45072;SDS011;30836;48.906;9.140;2022-07-10T02:45:28;40;;;32;;
45072;SDS011;30836;48.906;9.140;2022-07-10T02:46:28;39;;;31;;
45072;SDS011;30836;48.906;9.140;2022-07-10T02:47:29;40;;;32;;
45072;SDS011;30836;48.906;9.140;2022-07-10T02:48:29;42;;;34;;
45072;SDS011;30836;48.906;9.140;2022-07-10T02:49:30;39;;;31;;
45072;SDS011;30836;48.906;9.140;2022-07-10T02:50:30;39;;;31;;
45072;SDS011;30836;48.906;9.140;2022-07-10T02:51:31;40;;;32;;
45072;SDS011;30836;48.906;9.140;2022-07-10T02:52:31;39;;;31;;
45072;SDS011;30836;48.906;9.140;2022-07-10T02:53:32;39;;;31;;
45072;SDS011;30836;48.906;9.140;2022-07-10T02:54:32;40;;;32;;
45072;SDS011;30836;48.906;9.140;2022-07-10T02:55:33;40;;;32;;
45072;SDS011;30836;48.906;9.140;2022-07-10T02:56:33;40;;;32;;
45072;SDS011;30836;48.906;9.140;2022-07-10T02:57:33;39;;;31;;
45072;SDS011;30836;48.906;9.140;2022-07-10T02:58:34;40;;;32;;
45072;SDS011;30836;48.906;9.140;2022-07-10T02:59:35;39;;;31;;
45072;SDS011;30836;48.906;9.140;2022-07-10T03:00:36;39;;;31;;
45072;SDS011;30836;48.906;9.140;2022-07-10T03:01:36;39;;;31;;
45072;SDS011;30836;48.906;9.140;2022-07-10T03:02:37;40;;;32;;
45072;SDS011;30836;48.906;9.140;2022-07-10T03:03:37;42;;;34;;
45072;SDS011;30836;48.906;9.140;2022-07-10T03:04:38;39;;;31;;
45072;SDS011;30836;48.906;9.140;2022-07-10T03:05:38;39;;;31;;
45072;SDS011;30836;48.906;9.140;2022-07-10T03:06:38;39;;;31;;
45072;SDS011;30836;48.906;9.140;2022-07-10T03:07:39;40;;;32;;
45072;SDS011;30836;48.906;9.140;2022-07-10T03:08:39;39;;;31;;
45072;SDS011;30836;48.906;9.140;2022-07-10T03:09:40;39;;;31;;
45072;SDS011;30836;48.906;9.140;2022-07-10T03:10:40;39;;;31;;
45072;SDS011;30836;48.906;9.140;2022-07-10T03:11:41;39;;;31;;
45072;SDS011;30836;48.906;9.140;2022-07-10T03:12:41;39;;;31;;
45072;SDS011;30836;48.906;9.140;2022-07-10T03:13:41;36;;;29;;
45072;SDS011;30836;48.906;9.140;2022-07-10T03:14:42;36;;;29;;
45072;SDS011;30836;48.906;9.140;2022-07-10T03:15:42;39;;;31;;
45072;SDS011;30836;48.906;9.140;2022-07-10T03:16:43;39;;;31;;
45072;SDS011;30836;48.906;9.140;2022-07-10T03:17:43;39;;;31;;
45072;SDS011;30836;48.906;9.140;2022-07-10T03:18:44;38;;;30;;
45072;SDS011;30836;48.906;9.140;2022-07-10T03:19:44;40;;;32;;
45072;SDS011;30836;48.906;9.140;2022-07-10T03:20:45;39;;;31;;
45072;SDS011;30836;48.906;9.140;2022-07-10T03:21:45;39;;;31;;
45072;SDS011;30836;48.906;9.140;2022-07-10T03:22:46;39;;;31;;
45072;SDS011;30836;48.906;9.140;2022-07-10T03:23:46;39;;;31;;
45072;SDS011;30836;48.906;9.140;2022-07-10T03:24:47;38;;;30;;
45072;SDS011;30836;48.906;9.140;2022-07-10T03:25:47;40;;;32;;
45072;SDS011;30836;48.906;9.140;2022-07-10T03:26:48;39;;;31;;
45072;SDS011;30836;48.906;9.140;2022-07-10T03:27:48;39;;;31;;
45072;SDS011;30836;48.906;9.140;2022-07-10T03:28:49;39;;;31;;
45072;SDS011;30836;48.906;9.140;2022-07-10T03:29:49;37;;;29;;
45072;SDS011;30836;48.906;9.140;2022-07-10T03:30:50;35;;;28;;
45072;SDS011;30836;48.906;9.140;2022-07-10T03:31:51;36;;;29;;
45072;SDS011;30836;48.906;9.140;2022-07-10T03:32:51;41;;;33;;
45072;SDS011;30836;48.906;9.140;2022-07-10T03:33:51;40;;;32;;
45072;SDS011;30836;48.906;9.140;2022-07-10T03:34:52;40;;;32;;
45072;SDS011;30836;48.906;9.140;2022-07-10T03:35:53;39;;;31;;
45072;SDS011;30836;48.906;9.140;2022-07-10T03:36:53;37;;;29;;
45072;SDS011;30836;48.906;9.140;2022-07-10T03:37:53;38;;;30;;
45072;SDS011;30836;48.906;9.140;2022-07-10T03:38:54;39;;;31;;
45072;SDS011;30836;48.906;9.140;2022-07-10T03:39:54;37;;;29;;
45072;SDS011;30836;48.906;9.140;2022-07-10T03:40:55;39;;;31;;
45072;SDS011;30836;48.906;9.140;2022-07-10T03:41:55;37;;;29;;
45072;SDS011;30836;48.906;9.140;2022-07-10T03:42:56;37;;;29;;
45072;SDS011;30836;48.906;9.140;2022-07-10T03:43:56;36;;;29;;
45072;SDS011;30836;48.906;9.140;2022-07-10T03:44:56;36;;;29;;
45072;SDS011;30836;48.906;9.140;2022-07-10T03:45:57;36;;;29;;
45072;SDS011;30836;48.906;9.140;2022-07-10T03:46:58;36;;;29;;
45072;SDS011;30836;48.906;9.140;2022-07-10T03:47:59;39;;;31;;
45072;SDS011;30836;48.906;9.140;2022-07-10T03:48:59;37;;;29;;
45072;SDS011;30836;48.906;9.140;2022-07-10T03:50:00;39;;;31;;
45072;SDS011;30836;48.906;9.140;2022-07-10T03:51:01;39;;;31;;
45072;SDS011;30836;48.906;9.140;2022-07-10T03:52:02;36;;;29;;
45072;SDS011;30836;48.906;9.140;2022-07-10T03:53:03;35;;;28;;
45072;SDS011;30836;48.906;9.140;2022-07-10T03:54:03;36;;;29;;
45072;SDS011;30836;48.906;9.140;2022-07-10T03:55:04;35;;;28;;
45072;SDS011;30836;48.906;9.140;2022-07-10T03:56:05;35;;;28;;
45072;SDS011;30836;48.906;9.140;2022-07-10T03:57:05;34;;;27;;
45072;SDS011;30836;48.906;9.140;2022-07-10T03:58:06;36;;;29;;
45072;SDS011;30836;48.906;9.140;2022-07-10T03:59:06;36;;;29;;
45072;SDS011;30836;48.906;9.140;2022-07-10T04:00:07;34;;;27;;
45072;SDS011;30836;48.906;9.140;2022-07-10T04:01:08;35;;;28;;
45072;SDS011;30836;48.906;9.140;2022-07-10T04:02:08;36;;;29;;
45072;SDS011;30836;48.906;9.140;2022-07-10T04:03:09;33;;;26;;
45072;SDS011;30836;48.906;9.140;2022-07-10T04:04:09;36;;;29;;
45072;SDS011;30836;48.906;9.140;2022-07-10T04:05:10;34;;;27;;
45072;SDS011;30836;48.906;9.140;2022-07-10T04:06:10;35;;;28;;
45072;SDS011;30836;48.906;9.140;2022-07-10T04:07:11;33;;;26;;
45072;SDS011;30836;48.906;9.140;2022-07-10T04:08:11;35;;;28;;
45072;SDS011;30836;48.906;9.140;2022-07-10T04:09:12;36;;;29;;
45072;SDS011;30836;48.906;9.140;2022-07-10T04:10:12;35;;;28;;
45072;SDS011;30836;48.906;9.140;2022-07-10T04:11:13;33;;;26;;
45072;SDS011;30836;48.906;9.140;2022-07-10T04:12:13;32;;;25;;
45072;SDS011;30836;48.906;9.140;2022-07-10T04:13:14;33;;;26;;
45072;SDS011;30836;48.906;9.140;2022-07-10T04:14:14;32;;;25;;
45072;SDS011;30836;48.906;9.140;2022-07-10T04:15:15;32;;;25;;
45072;SDS011;30836;48.906;9.140;2022-07-10T04:16:16;35;;;28;;
45072;SDS011;30836;48.906;9.140;2022-07-10T04:17:17;33;;;26;;
45072;SDS011;30836;48.906;9.140;2022-07-10T04:18:18;35;;;28;;
45072;SDS011;30836;48.906;9.140;2022-07-10T04:19:19;33;;;26;;
45072;SDS011;30836;48.906;9.140;2022-07-10T04:20:20;36;;;29;;
45072;SDS011;30836;48.906;9.140;2022-07-10T04:21:20;33;;;26;;
45072;SDS011;30836;48.906;9.140;2022-07-10T04:22:21;32;;;25;;
45072;SDS011;30836;48.906;9.140;2022-07-10T04:23:21;33;;;26;;
45072;SDS011;30836;48.906;9.140;2022-07-10T04:24:21;32;;;25;;
45072;SDS011;30836;48.906;9.140;2022-07-10T04:25:22;34;;;27;;
45072;SDS011;30836;48.906;9.140;2022-07-10T04:26:22;35;;;28;;
45072;SDS011;30836;48.906;9.140;2022-07-10T04:27:23;32;;;25;;
45072;SDS011;30836;48.906;9.140;2022-07-10T04:28:23;33;;;26;;
45072;SDS011;30836;48.906;9.140;2022-07-10T04:29:24;32;;;25;;
45072;SDS011;30836;48.906;9.140;2022-07-10T04:30:24;33;;;26;;
45072;SDS011;30836;48.906;9.140;2022-07-10T04:31:24;32;;;25;;
45072;SDS011;30836;48.906;9.140;2022-07-10T04:32:35;32;;;25;;
45072;SDS011;30836;48.906;9.140;2022-07-10T04:33:35;32;;;25;;
45072;SDS011;30836;48.906;9.140;2022-07-10T04:34:36;35;;;28;;
45072;SDS011;30836;48.906;9.140;2022-07-10T04:35:38;32;;;25;;
45072;SDS011;30836;48.906;9.140;2022-07-10T04:36:38;32;;;25;;
45072;SDS011;30836;48.906;9.140;2022-07-10T04:37:39;33;;;26;;
45072;SDS011;30836;48.906;9.140;2022-07-10T04:38:39;32;;;25;;
45072;SDS011;30836;48.906;9.140;2022-07-10T04:39:40;32;;;25;;
45072;SDS011;30836;48.906;9.140;2022-07-10T04:40:40;33;;;26;;
45072;SDS011;30836;48.906;9.140;2022-07-10T04:41:41;33;;;26;;
45072;SDS011;30836;48.906;9.140;2022-07-10T04:42:41;29;;;23;;
45072;SDS011;30836;48.906;9.140;2022-07-10T04:43:41;28;;;22;;
45072;SDS011;30836;48.906;9.140;2022-07-10T04:44:42;28;;;22;;
45072;SDS011;30836;48.906;9.140;2022-07-10T04:45:42;28;;;22;;
45072;SDS011;30836;48.906;9.140;2022-07-10T04:46:43;29;;;23;;
45072;SDS011;30836;48.906;9.140;2022-07-10T04:47:43;29;;;23;;
45072;SDS011;30836;48.906;9.140;2022-07-10T04:48:44;28;;;22;;
45072;SDS011;30836;48.906;9.140;2022-07-10T04:49:44;30;;;24;;
45072;SDS011;30836;48.906;9.140;2022-07-10T04:50:44;29;;;23;;
45072;SDS011;30836;48.906;9.140;2022-07-10T04:51:45;29;;;23;;
45072;SDS011;30836;48.906;9.140;2022-07-10T04:52:45;27;;;21;;
45072;SDS011;30836;48.906;9.140;2022-07-10T04:53:46;26;;;20;;
45072;SDS011;30836;48.906;9.140;2022-07-10T04:54:46;27;;;21;;
45072;SDS011;30836;48.906;9.140;2022-07-10T04:55:47;26;;;20;;
45072;SDS011;30836;48.906;9.140;2022-07-10T04:56:47;26;;;20;;
45072;SDS011;30836;48.906;9.140;2022-07-10T04:57:48;25;;;19;;
45072;SDS011;30836;48.906;9.140;2022-07-10T04:58:48;24;;;19;;
45072;SDS011;30836;48.906;9.140;2022-07-10T04:59:49;26;;;20;;
45072;SDS011;30836;48.906;9.140;2022-07-10T05:00:49;24;;;19;;
45072;SDS011;30836;48.906;9.140;2022-07-10T05:01:50;26;;;20;;
45072;SDS011;30836;48.906;9.140;2022-07-10T05:02:50;22;;;17;;
45072;SDS011;30836;48.906;9.140;2022-07-10T05:03:51;22;;;17;;
45072;SDS011;30836;48.906;9.140;2022-07-10T05:04:51;22;;;17;;
45072;SDS011;30836;48.906;9.140;2022-07-10T05:05:51;24;;;19;;
45072;SDS011;30836;48.906;9.140;2022-07-10T05:06:52;22;;;17;;
45072;SDS011;30836;48.906;9.140;2022-07-10T05:07:52;22;;;17;;
45072;SDS011;30836;48.906;9.140;2022-07-10T05:08:53;22;;;17;;
45072;SDS011;30836;48.906;9.140;2022-07-10T05:09:53;21;;;16;;
45072;SDS011;30836;48.906;9.140;2022-07-10T05:10:54;22;;;17;;
45072;SDS011;30836;48.906;9.140;2022-07-10T05:11:54;22;;;17;;
45072;SDS011;30836;48.906;9.140;2022-07-10T05:12:55;24;;;19;;
45072;SDS011;30836;48.906;9.140;2022-07-10T05:13:55;21;;;16;;
45072;SDS011;30836;48.906;9.140;2022-07-10T05:14:56;25;;;19;;
45072;SDS011;30836;48.906;9.140;2022-07-10T05:15:56;22;;;17;;
45072;SDS011;30836;48.906;9.140;2022-07-10T05:16:57;25;;;19;;
45072;SDS011;30836;48.906;9.140;2022-07-10T05:17:57;22;;;17;;
45072;SDS011;30836;48.906;9.140;2022-07-10T05:18:58;22;;;17;;
45072;SDS011;30836;48.906;9.140;2022-07-10T05:19:58;24;;;19;;
45072;SDS011;30836;48.906;9.140;2022-07-10T05:20:58;22;;;17;;
45072;SDS011;30836;48.906;9.140;2022-07-10T05:21:59;21;;;16;;
45072;SDS011;30836;48.906;9.140;2022-07-10T05:22:59;22;;;17;;
45072;SDS011;30836;48.906;9.140;2022-07-10T05:24:00;25;;;19;;
45072;SDS011;30836;48.906;9.140;2022-07-10T05:25:00;26;;;20;;
45072;SDS011;30836;48.906;9.140;2022-07-10T05:26:01;22;;;17;;
45072;SDS011;30836;48.906;9.140;2022-07-10T05:27:01;22;;;17;;
45072;SDS011;30836;48.906;9.140;2022-07-10T05:28:02;26;;;20;;
45072;SDS011;30836;48.906;9.140;2022-07-10T05:29:03;24;;;19;;
45072;SDS011;30836;48.906;9.140;2022-07-10T05:30:04;21;;;16;;
45072;SDS011;30836;48.906;9.140;2022-07-10T05:31:04;22;;;17;;
45072;SDS011;30836;48.906;9.140;2022-07-10T05:32:05;21;;;16;;
45072;SDS011;30836;48.906;9.140;2022-07-10T05:33:06;21;;;16;;
45072;SDS011;30836;48.906;9.140;2022-07-10T05:34:06;21;;;16;;
45072;SDS011;30836;48.906;9.140;2022-07-10T05:35:07;22;;;17;;
45072;SDS011;30836;48.906;9.140;2022-07-10T05:36:08;22;;;17;;
45072;SDS011;30836;48.906;9.140;2022-07-10T05:37:09;22;;;17;;
45072;SDS011;30836;48.906;9.140;2022-07-10T05:38:09;22;;;17;;
45072;SDS011;30836;48.906;9.140;2022-07-10T05:39:10;21;;;16;;
45072;SDS011;30836;48.906;9.140;2022-07-10T05:40:21;21;;;16;;
45072;SDS011;30836;48.906;9.140;2022-07-10T05:41:21;24;;;19;;
45072;SDS011;30836;48.906;9.140;2022-07-10T05:42:21;21;;;16;;
45072;SDS011;30836;48.906;9.140;2022-07-10T05:43:22;22;;;17;;
45072;SDS011;30836;48.906;9.140;2022-07-10T05:44:23;21;;;16;;
45072;SDS011;30836;48.906;9.140;2022-07-10T05:45:24;21;;;16;;
45072;SDS011;30836;48.906;9.140;2022-07-10T05:46:24;26;;;20;;
45072;SDS011;30836;48.906;9.140;2022-07-10T05:47:25;21;;;16;;
45072;SDS011;30836;48.906;9.140;2022-07-10T05:48:25;21;;;16;;
45072;SDS011;30836;48.906;9.140;2022-07-10T05:49:26;23;;;18;;
45072;SDS011;30836;48.906;9.140;2022-07-10T05:50:26;21;;;16;;
45072;SDS011;30836;48.906;9.140;2022-07-10T05:51:27;22;;;17;;
45072;SDS011;30836;48.906;9.140;2022-07-10T05:52:27;21;;;16;;
45072;SDS011;30836;48.906;9.140;2022-07-10T05:53:27;21;;;16;;
45072;SDS011;30836;48.906;9.140;2022-07-10T05:54:28;21;;;16;;
45072;SDS011;30836;48.906;9.140;2022-07-10T05:55:28;22;;;17;;
45072;SDS011;30836;48.906;9.140;2022-07-10T05:56:29;21;;;16;;
45072;SDS011;30836;48.906;9.140;2022-07-10T05:57:30;21;;;16;;
45072;SDS011;30836;48.906;9.140;2022-07-10T05:58:31;19;;;14;;
45072;SDS011;30836;48.906;9.140;2022-07-10T05:59:35;22;;;17;;
45072;SDS011;30836;48.906;9.140;2022-07-10T06:00:35;19;;;14;;
45072;SDS011;30836;48.906;9.140;2022-07-10T06:01:36;21;;;16;;
45072;SDS011;30836;48.906;9.140;2022-07-10T06:02:36;19;;;14;;
45072;SDS011;30836;48.906;9.140;2022-07-10T06:03:37;20;;;15;;
45072;SDS011;30836;48.906;9.140;2022-07-10T06:04:37;19;;;14;;
45072;SDS011;30836;48.906;9.140;2022-07-10T06:05:38;18;;;13;;
45072;SDS011;30836;48.906;9.140;2022-07-10T06:06:38;21;;;16;;
45072;SDS011;30836;48.906;9.140;2022-07-10T06:07:39;19;;;14;;
45072;SDS011;30836;48.906;9.140;2022-07-10T06:08:39;18;;;13;;
45072;SDS011;30836;48.906;9.140;2022-07-10T06:09:40;19;;;14;;
45072;SDS011;30836;48.906;9.140;2022-07-10T06:10:40;19;;;14;;
45072;SDS011;30836;48.906;9.140;2022-07-10T06:11:41;18;;;13;;
45072;SDS011;30836;48.906;9.140;2022-07-10T06:12:41;17;;;13;;
45072;SDS011;30836;48.906;9.140;2022-07-10T06:13:42;17;;;13;;
45072;SDS011;30836;48.906;9.140;2022-07-10T06:14:42;18;;;13;;
45072;SDS011;30836;48.906;9.140;2022-07-10T06:15:42;17;;;13;;
45072;SDS011;30836;48.906;9.140;2022-07-10T06:16:43;18;;;13;;
45072;SDS011;30836;48.906;9.140;2022-07-10T06:17:43;19;;;14;;
45072;SDS011;30836;48.906;9.140;2022-07-10T06:18:44;19;;;14;;
45072;SDS011;30836;48.906;9.140;2022-07-10T06:19:44;17;;;13;;
45072;SDS011;30836;48.906;9.140;2022-07-10T06:20:45;19;;;14;;
45072;SDS011;30836;48.906;9.140;2022-07-10T06:21:45;18;;;13;;
45072;SDS011;30836;48.906;9.140;2022-07-10T06:22:46;18;;;13;;
45072;SDS011;30836;48.906;9.140;2022-07-10T06:23:46;18;;;13;;
45072;SDS011;30836;48.906;9.140;2022-07-10T06:24:46;19;;;14;;
45072;SDS011;30836;48.906;9.140;2022-07-10T06:25:47;17;;;13;;
45072;SDS011;30836;48.906;9.140;2022-07-10T06:26:47;17;;;13;;
45072;SDS011;30836;48.906;9.140;2022-07-10T06:27:48;15;;;11;;
45072;SDS011;30836;48.906;9.140;2022-07-10T06:28:48;17;;;13;;
45072;SDS011;30836;48.906;9.140;2022-07-10T06:29:49;16;;;12;;
45072;SDS011;30836;48.906;9.140;2022-07-10T06:30:50;17;;;13;;